^^
Station Historical Data
Daily Summary for January 22, 2018 Units:  Both    English   Metric
« Previous Day
Next Day »
Daily Weekly Monthly Yearly Custom
  High: Low: Average:
Temperature: TemperatureF °F /  -17.8 °C 70.9 °F /  21.6 °C 77.7 °F /  25.4 °C
Dew Point: DewpointF °F /  -17.8 °C 38.7 °F /  3.7 °C 41.4 °F /  5.2 °C
Humidity: Humidity% 24% 27%
Wind Speed: WindSpeedMPHmph /  0km/h - -4.5mph /  -7.2km/h
Wind Gust: WindSpeedGustMPHmph /  0km/h - -
Wind- - NE
Pressure: PressureIn in /  0 hPa 29.53 in /  999.9 hPa -
Precipitation: 0.00 in /  0 mm    
Historical Graphs
 
 
Tabular Data for January 22, 2018
Time Temperature Dew Point Pressure Wind Wind Speed Wind Gust Humidity Rainfall Rate (Hourly) solar Conditions
TemperatureF °F /  -17.8 °C DewpointF °F /  -17.8 °C PressureInin /  0hPa Calm     Humidity% HourlyPrecipInin /  0mm SoftwareType W/m2 Conditions
08:56 70.9 °F /  21.6 °C 39.6 °F /  4.2 °C 29.68in /  1005hPa SSW 2.9mph /  4.7km/h 5.0mph /  8km/h 32% 0.00in /  0mm meteobridge W/m2
09:02 71.1 °F /  21.7 °C 39.7 °F /  4.3 °C 29.67in /  1004.6hPa SSW 2.0mph /  3.2km/h 3.0mph /  4.8km/h 32% 0.00in /  0mm meteobridge W/m2
09:09 71.2 °F /  21.8 °C 39.0 °F /  3.9 °C 29.68in /  1005hPa SSW 0.9mph /  1.4km/h 4.0mph /  6.4km/h 31% 0.00in /  0mm meteobridge W/m2
09:15 72.1 °F /  22.3 °C 39.9 °F /  4.4 °C 29.68in /  1005hPa Calm   5.0mph /  8km/h 31% 0.00in /  0mm meteobridge W/m2
09:21 73.0 °F /  22.8 °C 40.6 °F /  4.8 °C 29.67in /  1004.6hPa Calm   1.0mph /  1.6km/h 31% 0.00in /  0mm meteobridge W/m2
09:27 74.5 °F /  23.6 °C 42.6 °F /  5.9 °C 29.67in /  1004.6hPa South 2.9mph /  4.7km/h 3.0mph /  4.8km/h 32% 0.00in /  0mm meteobridge W/m2
09:33 74.3 °F /  23.5 °C 40.8 °F /  4.9 °C 29.67in /  1004.6hPa South 4.0mph /  6.4km/h 8.0mph /  12.9km/h 30% 0.00in /  0mm meteobridge W/m2
09:39 74.1 °F /  23.4 °C 40.6 °F /  4.8 °C 29.67in /  1004.6hPa South 6.0mph /  9.7km/h 9.0mph /  14.5km/h 30% 0.00in /  0mm meteobridge W/m2
09:45 73.0 °F /  22.8 °C 38.8 °F /  3.8 °C 29.67in /  1004.6hPa SSW 4.9mph /  7.9km/h 9.0mph /  14.5km/h 29% 0.00in /  0mm meteobridge W/m2
09:58 75.4 °F /  24.1 °C 40.1 °F /  4.5 °C 29.67in /  1004.6hPa ESE 0.9mph /  1.4km/h 5.0mph /  8km/h 28% 0.00in /  0mm meteobridge W/m2
10:04 77.4 °F /  25.2 °C 39.7 °F /  4.3 °C 29.67in /  1004.6hPa Calm   1.0mph /  1.6km/h 26% 0.00in /  0mm meteobridge W/m2
10:10 77.7 °F /  25.4 °C 39.0 °F /  3.9 °C 29.67in /  1004.6hPa Calm   4.0mph /  6.4km/h 25% 0.00in /  0mm meteobridge W/m2
10:16 78.1 °F /  25.6 °C 39.4 °F /  4.1 °C 29.67in /  1004.6hPa NE 6.9mph /  11.1km/h 12.0mph /  19.3km/h 25% 0.00in /  0mm meteobridge W/m2
10:22 76.8 °F /  24.9 °C 39.4 °F /  4.1 °C 29.67in /  1004.6hPa ENE 2.0mph /  3.2km/h 8.0mph /  12.9km/h 26% 0.00in /  0mm meteobridge W/m2
10:28 76.5 °F /  24.7 °C 39.9 °F /  4.4 °C 29.67in /  1004.6hPa NE 4.9mph /  7.9km/h 11.0mph /  17.7km/h 27% 0.00in /  0mm meteobridge W/m2
10:35 76.8 °F /  24.9 °C 40.3 °F /  4.6 °C 29.67in /  1004.6hPa ENE 4.9mph /  7.9km/h 5.0mph /  8km/h 27% 0.00in /  0mm meteobridge W/m2
10:41 78.4 °F /  25.8 °C 40.6 °F /  4.8 °C 29.67in /  1004.6hPa North 0.9mph /  1.4km/h 8.0mph /  12.9km/h 26% 0.00in /  0mm meteobridge W/m2
10:47 78.4 °F /  25.8 °C 40.6 °F /  4.8 °C 29.67in /  1004.6hPa SE 2.9mph /  4.7km/h 7.0mph /  11.3km/h 26% 0.00in /  0mm meteobridge W/m2
11:09 77.5 °F /  25.3 °C 39.9 °F /  4.4 °C 29.67in /  1004.6hPa South 6.0mph /  9.7km/h 29.0mph /  46.7km/h 26% 0.00in /  0mm meteobridge W/m2
11:15 78.1 °F /  25.6 °C 40.5 °F /  4.7 °C 29.67in /  1004.6hPa SSE 2.9mph /  4.7km/h 10.0mph /  16.1km/h 26% 0.00in /  0mm meteobridge W/m2
11:21 77.2 °F /  25.1 °C 39.6 °F /  4.2 °C 29.67in /  1004.6hPa ESE 2.0mph /  3.2km/h 6.0mph /  9.7km/h 26% 0.00in /  0mm meteobridge W/m2
11:40 76.8 °F /  24.9 °C 39.4 °F /  4.1 °C 29.67in /  1004.6hPa SE 6.9mph /  11.1km/h 12.0mph /  19.3km/h 26% 0.00in /  0mm meteobridge W/m2
11:46 77.7 °F /  25.4 °C 39.0 °F /  3.9 °C 29.67in /  1004.6hPa SE 6.0mph /  9.7km/h 13.0mph /  20.9km/h 25% 0.00in /  0mm meteobridge W/m2
11:52 77.2 °F /  25.1 °C 38.7 °F /  3.7 °C 29.66in /  1004.3hPa SSW 0.9mph /  1.4km/h 5.0mph /  8km/h 25% 0.00in /  0mm meteobridge W/m2
11:58 78.6 °F /  25.9 °C 39.9 °F /  4.4 °C 29.65in /  1003.9hPa SE 4.9mph /  7.9km/h 10.0mph /  16.1km/h 25% 0.00in /  0mm meteobridge W/m2
12:04 79.3 °F /  26.3 °C 40.5 °F /  4.7 °C 29.65in /  1003.9hPa SSE 2.0mph /  3.2km/h 13.0mph /  20.9km/h 25% 0.00in /  0mm meteobridge W/m2
12:10 78.3 °F /  25.7 °C 39.6 °F /  4.2 °C 29.65in /  1003.9hPa South 4.0mph /  6.4km/h 16.0mph /  25.7km/h 25% 0.00in /  0mm meteobridge W/m2
12:16 79.2 °F /  26.2 °C 41.4 °F /  5.2 °C 29.65in /  1003.9hPa South 4.9mph /  7.9km/h 15.0mph /  24.1km/h 26% 0.00in /  0mm meteobridge W/m2
12:23 79.0 °F /  26.1 °C 40.1 °F /  4.5 °C 29.65in /  1003.9hPa South 4.9mph /  7.9km/h 10.0mph /  16.1km/h 25% 0.00in /  0mm meteobridge W/m2
12:29 78.8 °F /  26 °C 41.0 °F /  5 °C 29.65in /  1003.9hPa ENE 4.0mph /  6.4km/h 6.0mph /  9.7km/h 26% 0.00in /  0mm meteobridge W/m2
12:35 79.7 °F /  26.5 °C 40.8 °F /  4.9 °C 29.65in /  1003.9hPa SSW 0.9mph /  1.4km/h 9.0mph /  14.5km/h 25% 0.00in /  0mm meteobridge W/m2
12:41 79.5 °F /  26.4 °C 40.6 °F /  4.8 °C 29.64in /  1003.6hPa SSE 8.9mph /  14.3km/h 11.0mph /  17.7km/h 25% 0.00in /  0mm meteobridge W/m2
12:59 79.5 °F /  26.4 °C 40.6 °F /  4.8 °C 29.63in /  1003.3hPa SW 2.9mph /  4.7km/h 14.0mph /  22.5km/h 25% 0.00in /  0mm meteobridge W/m2
13:05 79.5 °F /  26.4 °C 41.5 °F /  5.3 °C 29.63in /  1003.3hPa South 17.9mph /  28.8km/h 27.0mph /  43.5km/h 26% 0.00in /  0mm meteobridge W/m2
13:11 78.4 °F /  25.8 °C 41.7 °F /  5.4 °C 29.63in /  1003.3hPa SSE 15.0mph /  24.1km/h 22.0mph /  35.4km/h 27% 0.00in /  0mm meteobridge W/m2
13:24 78.6 °F /  25.9 °C 41.9 °F /  5.5 °C 29.62in /  1002.9hPa SE 6.0mph /  9.7km/h 12.0mph /  19.3km/h 27% 0.00in /  0mm meteobridge W/m2
13:30 80.2 °F /  26.8 °C 42.3 °F /  5.7 °C 29.62in /  1002.9hPa SE 13.0mph /  20.9km/h 15.0mph /  24.1km/h 26% 0.00in /  0mm meteobridge W/m2
13:36 82.2 °F /  27.9 °C 43.9 °F /  6.6 °C 29.62in /  1002.9hPa SSW 6.9mph /  11.1km/h 10.0mph /  16.1km/h 26% 0.00in /  0mm meteobridge W/m2
13:48 82.2 °F /  27.9 °C 43.0 °F /  6.1 °C 29.62in /  1002.9hPa SSE 11.0mph /  17.7km/h 15.0mph /  24.1km/h 25% 0.00in /  0mm meteobridge W/m2
14:00 82.6 °F /  28.1 °C 43.2 °F /  6.2 °C 29.61in /  1002.6hPa SE 6.9mph /  11.1km/h 14.0mph /  22.5km/h 25% 0.00in /  0mm meteobridge W/m2
14:07 82.9 °F /  28.3 °C 42.4 °F /  5.8 °C 29.61in /  1002.6hPa South 8.1mph /  13km/h 17.0mph /  27.4km/h 24% 0.00in /  0mm meteobridge W/m2
14:13 82.6 °F /  28.1 °C 43.2 °F /  6.2 °C 29.61in /  1002.6hPa SSE 17.0mph /  27.4km/h 18.0mph /  29km/h 25% 0.00in /  0mm meteobridge W/m2
14:19 81.9 °F /  27.7 °C 43.7 °F /  6.5 °C 29.61in /  1002.6hPa South 12.1mph /  19.5km/h 15.0mph /  24.1km/h 26% 0.00in /  0mm meteobridge W/m2
14:25 83.3 °F /  28.5 °C 44.8 °F /  7.1 °C 29.60in /  1002.3hPa SSE 6.9mph /  11.1km/h 16.0mph /  25.7km/h 26% 0.00in /  0mm meteobridge W/m2
14:31 84.4 °F /  29.1 °C 44.8 °F /  7.1 °C 29.60in /  1002.3hPa SSE 6.0mph /  9.7km/h 19.0mph /  30.6km/h 25% 0.00in /  0mm meteobridge W/m2
14:37 82.2 °F /  27.9 °C 43.9 °F /  6.6 °C 29.59in /  1001.9hPa SSE 2.9mph /  4.7km/h 7.0mph /  11.3km/h 26% 0.00in /  0mm meteobridge W/m2
14:49 82.9 °F /  28.3 °C 44.6 °F /  7 °C 29.59in /  1001.9hPa South 12.1mph /  19.5km/h 17.0mph /  27.4km/h 26% 0.00in /  0mm meteobridge W/m2
15:02 84.0 °F /  28.9 °C 45.5 °F /  7.5 °C 29.58in /  1001.6hPa SSE 6.0mph /  9.7km/h 14.0mph /  22.5km/h 26% 0.00in /  0mm meteobridge W/m2
15:08 82.8 °F /  28.2 °C 45.3 °F /  7.4 °C 29.58in /  1001.6hPa South 12.1mph /  19.5km/h 20.0mph /  32.2km/h 27% 0.00in /  0mm meteobridge W/m2
15:32 83.8 °F /  28.8 °C 46.2 °F /  7.9 °C 29.56in /  1000.9hPa SSE 11.0mph /  17.7km/h 14.0mph /  22.5km/h 27% 0.00in /  0mm meteobridge W/m2
15:38 82.9 °F /  28.3 °C 45.5 °F /  7.5 °C 29.56in /  1000.9hPa SSW 15.0mph /  24.1km/h 19.0mph /  30.6km/h 27% 0.00in /  0mm meteobridge W/m2
15:44 82.2 °F /  27.9 °C 45.9 °F /  7.7 °C 29.56in /  1000.9hPa SSE 8.9mph /  14.3km/h 15.0mph /  24.1km/h 28% 0.00in /  0mm meteobridge W/m2
15:50 82.8 °F /  28.2 °C 46.4 °F /  8 °C 29.56in /  1000.9hPa SSW 11.0mph /  17.7km/h 15.0mph /  24.1km/h 28% 0.00in /  0mm meteobridge W/m2
15:56 82.8 °F /  28.2 °C 45.3 °F /  7.4 °C 29.55in /  1000.6hPa SSW 4.0mph /  6.4km/h 6.0mph /  9.7km/h 27% 0.00in /  0mm meteobridge W/m2
16:14 82.2 °F /  27.9 °C 45.9 °F /  7.7 °C 29.54in /  1000.2hPa South 4.9mph /  7.9km/h 7.0mph /  11.3km/h 28% 0.00in /  0mm meteobridge W/m2
16:21 82.6 °F /  28.1 °C 45.1 °F /  7.3 °C 29.54in /  1000.2hPa South 11.0mph /  17.7km/h 20.0mph /  32.2km/h 27% 0.00in /  0mm meteobridge W/m2
16:37 80.2 °F /  26.8 °C 45.1 °F /  7.3 °C 29.54in /  1000.2hPa South 2.9mph /  4.7km/h 9.0mph /  14.5km/h 29% 0.00in /  0mm meteobridge W/m2
16:43 81.7 °F /  27.6 °C 45.3 °F /  7.4 °C 29.54in /  1000.2hPa South 4.9mph /  7.9km/h 18.0mph /  29km/h 28% 0.00in /  0mm meteobridge W/m2
16:49 81.5 °F /  27.5 °C 45.3 °F /  7.4 °C 29.54in /  1000.2hPa SE 6.0mph /  9.7km/h 14.0mph /  22.5km/h 28% 0.00in /  0mm meteobridge W/m2
16:55 81.7 °F /  27.6 °C 44.4 °F /  6.9 °C 29.54in /  1000.2hPa SSW 11.0mph /  17.7km/h 12.0mph /  19.3km/h 27% 0.00in /  0mm meteobridge W/m2
17:01 81.3 °F /  27.4 °C 44.1 °F /  6.7 °C 29.54in /  1000.2hPa SSE 4.9mph /  7.9km/h 14.0mph /  22.5km/h 27% 0.00in /  0mm meteobridge W/m2
17:07 80.8 °F /  27.1 °C 43.7 °F /  6.5 °C 29.54in /  1000.2hPa South 11.0mph /  17.7km/h 19.0mph /  30.6km/h 27% 0.00in /  0mm meteobridge W/m2
17:13 80.8 °F /  27.1 °C 43.7 °F /  6.5 °C 29.54in /  1000.2hPa SSE 2.0mph /  3.2km/h 13.0mph /  20.9km/h 27% 0.00in /  0mm meteobridge W/m2
17:20 81.5 °F /  27.5 °C 43.3 °F /  6.3 °C 29.54in /  1000.2hPa SSW 17.9mph /  28.8km/h 18.0mph /  29km/h 26% 0.00in /  0mm meteobridge W/m2
17:26 80.6 °F /  27 °C 42.6 °F /  5.9 °C 29.53in /  999.9hPa South 12.1mph /  19.5km/h 20.0mph /  32.2km/h 26% 0.00in /  0mm meteobridge W/m2
17:32 81.5 °F /  27.5 °C 43.3 °F /  6.3 °C 29.54in /  1000.2hPa SSE 13.0mph /  20.9km/h 14.0mph /  22.5km/h 26% 0.00in /  0mm meteobridge W/m2
17:38 81.7 °F /  27.6 °C 43.5 °F /  6.4 °C 29.53in /  999.9hPa SSE 13.0mph /  20.9km/h 18.0mph /  29km/h 26% 0.00in /  0mm meteobridge W/m2
17:44 80.8 °F /  27.1 °C 42.6 °F /  5.9 °C 29.54in /  1000.2hPa South 13.0mph /  20.9km/h 13.0mph /  20.9km/h 26% 0.00in /  0mm meteobridge W/m2
17:50 81.0 °F /  27.2 °C 42.8 °F /  6 °C 29.54in /  1000.2hPa SSE 15.0mph /  24.1km/h 16.0mph /  25.7km/h 26% 0.00in /  0mm meteobridge W/m2
17:56 79.5 °F /  26.4 °C 42.6 °F /  5.9 °C 29.54in /  1000.2hPa SSE 16.1mph /  25.9km/h 20.0mph /  32.2km/h 27% 0.00in /  0mm meteobridge W/m2
18:02 79.0 °F /  26.1 °C 42.1 °F /  5.6 °C 29.54in /  1000.2hPa South 10.1mph /  16.3km/h 17.0mph /  27.4km/h 27% 0.00in /  0mm meteobridge W/m2
18:08 79.0 °F /  26.1 °C 42.1 °F /  5.6 °C 29.54in /  1000.2hPa SSE 10.1mph /  16.3km/h 15.0mph /  24.1km/h 27% 0.00in /  0mm meteobridge W/m2
18:14 78.6 °F /  25.9 °C 41.9 °F /  5.5 °C 29.54in /  1000.2hPa South 10.1mph /  16.3km/h 14.0mph /  22.5km/h 27% 0.00in /  0mm meteobridge W/m2
18:20 78.1 °F /  25.6 °C 42.3 °F /  5.7 °C 29.54in /  1000.2hPa South 8.1mph /  13km/h 15.0mph /  24.1km/h 28% 0.00in /  0mm meteobridge W/m2
18:39 76.3 °F /  24.6 °C 41.7 °F /  5.4 °C 29.55in /  1000.6hPa SSE 11.0mph /  17.7km/h 14.0mph /  22.5km/h 29% 0.00in /  0mm meteobridge W/m2
18:45 75.9 °F /  24.4 °C 41.4 °F /  5.2 °C 29.55in /  1000.6hPa SSE 11.0mph /  17.7km/h 19.0mph /  30.6km/h 29% 0.00in /  0mm meteobridge W/m2
18:51 75.2 °F /  24 °C 41.7 °F /  5.4 °C 29.55in /  1000.6hPa SSE 17.0mph /  27.4km/h 17.0mph /  27.4km/h 30% 0.00in /  0mm meteobridge W/m2
18:57 74.7 °F /  23.7 °C 41.2 °F /  5.1 °C 29.55in /  1000.6hPa South 14.1mph /  22.7km/h 19.0mph /  30.6km/h 30% 0.00in /  0mm meteobridge W/m2
19:20 73.0 °F /  22.8 °C 39.7 °F /  4.3 °C 29.57in /  1001.2hPa South 8.9mph /  14.3km/h 14.0mph /  22.5km/h 30% 0.00in /  0mm meteobridge W/m2
19:26 72.7 °F /  22.6 °C 39.4 °F /  4.1 °C 29.57in /  1001.2hPa South 13.0mph /  20.9km/h 15.0mph /  24.1km/h 30% 0.00in /  0mm meteobridge W/m2
19:32 72.0 °F /  22.2 °C 38.8 °F /  3.8 °C 29.57in /  1001.2hPa SSE 8.1mph /  13km/h 11.0mph /  17.7km/h 30% 0.00in /  0mm meteobridge W/m2
19:38 72.0 °F /  22.2 °C 38.8 °F /  3.8 °C 29.58in /  1001.6hPa SSE 8.1mph /  13km/h 8.1mph /  13km/h 30% 0.00in /  0mm meteobridge W/m2
19:43 72.0 °F /  22.2 °C 38.8 °F /  3.8 °C 29.58in /  1001.6hPa SSE 8.1mph /  13km/h -999.0mph /  -1607.7km/h 30% 0.00in /  0mm meteobridge W/m2
19:48 72.0 °F /  22.2 °C 38.8 °F /  3.8 °C 29.57in /  1001.2hPa North -999.9mph /  -1609.1km/h -999.0mph /  -1607.7km/h 30% 0.00in /  0mm meteobridge W/m2
Regenstein, Windhoek, Namibia
Compliments of Weather Underground - 2.25 mb